createdAt,value
2023-03-29T00:01:49.461Z,184.23
2023-03-29T00:05:49.601Z,182.70
2023-03-29T00:09:49.749Z,184.41
2023-03-29T00:13:49.916Z,180.61
2023-03-29T00:17:50.115Z,182.94
2023-03-29T00:21:50.227Z,184.53
2023-03-29T00:25:50.451Z,183.64
2023-03-29T00:29:50.580Z,183.21
2023-03-29T00:33:50.707Z,183.70
2023-03-29T00:37:50.956Z,188.52
2023-03-29T00:41:51.069Z,182.07
2023-03-29T00:45:51.196Z,184.31
2023-03-29T00:49:51.356Z,185.81
2023-03-29T00:53:51.495Z,185.09
2023-03-29T00:57:51.693Z,188.30
2023-03-29T01:01:51.844Z,187.52
2023-03-29T01:05:51.991Z,184.68
2023-03-29T01:09:52.179Z,186.08
2023-03-29T01:13:52.354Z,186.98
2023-03-29T01:17:52.684Z,187.80
2023-03-29T01:21:52.784Z,188.56
2023-03-29T01:25:52.945Z,189.10
2023-03-29T01:29:53.136Z,185.74
2023-03-29T01:33:53.320Z,187.23
2023-03-29T01:37:53.503Z,189.97
2023-03-29T01:41:53.687Z,186.87
2023-03-29T01:45:53.950Z,190.03
2023-03-29T01:49:54.093Z,185.94
2023-03-29T01:53:54.217Z,189.65
2023-03-29T01:57:54.456Z,186.74
2023-03-29T02:01:54.704Z,187.35
2023-03-29T02:05:54.816Z,182.86
2023-03-29T02:09:54.850Z,183.43
2023-03-29T02:13:54.721Z,185.19
2023-03-29T02:17:54.758Z,180.06
2023-03-29T02:21:54.644Z,180.08
2023-03-29T02:25:54.646Z,173.17
2023-03-29T02:29:54.568Z,175.31
2023-03-29T02:33:54.552Z,176.40
2023-03-29T02:37:54.532Z,175.26
2023-03-29T02:41:54.502Z,168.43
2023-03-29T02:45:54.846Z,168.35
2023-03-29T02:49:54.457Z,170.28
2023-03-29T02:53:54.478Z,173.88
2023-03-29T02:57:54.379Z,170.08
2023-03-29T03:01:54.431Z,169.42
2023-03-29T03:05:54.364Z,169.85
2023-03-29T03:09:54.338Z,170.65
2023-03-29T03:13:54.214Z,174.48
2023-03-29T03:17:54.313Z,166.86
2023-03-29T03:21:54.161Z,172.56
2023-03-29T03:25:54.245Z,175.44
2023-03-29T03:29:54.565Z,173.69
2023-03-29T03:33:54.395Z,176.30
2023-03-29T03:37:54.361Z,173.87
2023-03-29T03:41:54.298Z,176.04
2023-03-29T03:45:54.368Z,177.12
2023-03-29T03:49:54.257Z,179.99
2023-03-29T03:53:54.221Z,177.68
2023-03-29T03:57:54.184Z,181.43
2023-03-29T04:01:54.202Z,181.20
2023-03-29T04:05:54.105Z,173.81
2023-03-29T04:09:54.045Z,159.57
2023-03-29T04:13:54.049Z,140.73
2023-03-29T04:17:54.063Z,128.94
2023-03-29T04:21:53.937Z,126.66
2023-03-29T04:25:53.916Z,127.18
2023-03-29T04:29:53.884Z,130.85
2023-03-29T04:33:53.807Z,140.12
2023-03-29T04:37:53.807Z,143.25
2023-03-29T04:41:53.941Z,143.33
2023-03-29T04:45:54.035Z,148.00
2023-03-29T04:49:54.053Z,151.33
2023-03-29T04:53:54.222Z,157.40
2023-03-29T04:57:54.377Z,157.00
2023-03-29T05:01:54.597Z,168.97
2023-03-29T05:05:54.471Z,176.44
2023-03-29T05:09:54.462Z,193.39
2023-03-29T05:13:54.391Z,193.14
2023-03-29T05:17:54.427Z,179.19
2023-03-29T05:21:54.348Z,143.24
2023-03-29T05:25:54.381Z,133.46
2023-03-29T05:29:54.313Z,151.00
2023-03-29T05:33:54.307Z,134.82
2023-03-29T05:37:54.210Z,123.51
2023-03-29T05:41:54.137Z,132.83
2023-03-29T05:45:54.207Z,140.60
2023-03-29T05:49:54.095Z,156.11
2023-03-29T05:53:54.011Z,136.59
2023-03-29T05:57:54.367Z,135.47
2023-03-29T06:01:53.985Z,154.36
2023-03-29T06:05:53.942Z,173.43
2023-03-29T06:09:53.919Z,185.70
2023-03-29T06:13:53.893Z,194.03
2023-03-29T06:17:53.931Z,210.82
2023-03-29T06:21:53.935Z,227.03
2023-03-29T06:25:53.957Z,229.44
2023-03-29T06:29:54.069Z,235.57
2023-03-29T06:33:54.125Z,229.84
2023-03-29T06:37:54.093Z,230.25
2023-03-29T06:41:54.392Z,168.73
2023-03-29T06:45:54.342Z,195.20
2023-03-29T06:49:54.312Z,209.45
2023-03-29T06:53:54.238Z,209.74
2023-03-29T06:57:54.163Z,210.96
2023-03-29T07:01:54.228Z,220.96
2023-03-29T07:05:54.110Z,227.22
2023-03-29T07:09:54.304Z,181.56
2023-03-29T07:13:54.017Z,154.10
2023-03-29T07:17:54.114Z,192.31
2023-03-29T07:21:53.940Z,186.49
2023-03-29T07:25:54.060Z,189.88
2023-03-29T07:29:53.900Z,163.44
2023-03-29T07:33:53.929Z,81.80
2023-03-29T07:37:53.808Z,38.03
2023-03-29T07:41:53.761Z,139.38
2023-03-29T07:45:53.836Z,158.45
2023-03-29T07:49:53.837Z,158.43
2023-03-29T07:53:53.945Z,179.08
2023-03-29T07:57:54.078Z,158.13
2023-03-29T08:01:53.997Z,161.74
2023-03-29T08:05:54.024Z,171.67
2023-03-29T08:09:54.145Z,169.39
2023-03-29T08:13:54.147Z,147.44
2023-03-29T08:17:54.339Z,159.82
2023-03-29T08:21:54.141Z,171.56
2023-03-29T08:25:54.088Z,143.33
2023-03-29T08:29:54.060Z,35.65
2023-03-29T08:33:54.088Z,25.00
2023-03-29T08:37:53.919Z,24.44
2023-03-29T08:45:32.083Z,25.00
2023-03-29T08:49:32.084Z,36.67
2023-03-29T08:53:32.014Z,50.91
2023-03-29T08:57:32.038Z,63.78
2023-03-29T09:01:32.055Z,76.65
2023-03-29T09:05:31.972Z,70.77
2023-03-29T09:09:31.951Z,95.01
2023-03-29T09:13:31.928Z,104.38
2023-03-29T09:17:31.812Z,111.68
2023-03-29T09:25:54.141Z,25.00
2023-03-29T09:29:50.592Z,25.00
2023-03-29T09:33:50.519Z,45.30
2023-03-29T09:37:50.875Z,55.54
2023-03-29T09:41:50.423Z,49.85
2023-03-29T09:45:50.390Z,65.13
2023-03-29T09:49:50.376Z,41.44
2023-03-29T09:53:50.336Z,45.23
2023-03-29T09:57:50.332Z,65.73
2023-03-29T10:01:50.357Z,64.62
2023-03-29T10:05:50.241Z,56.44
2023-03-29T10:09:50.225Z,68.22
2023-03-29T10:13:50.139Z,61.23
2023-03-29T10:17:50.253Z,54.85
2023-03-29T10:21:50.504Z,57.60
2023-03-29T10:25:50.379Z,38.78
2023-03-29T10:29:50.275Z,45.55
2023-03-29T10:33:50.311Z,28.19
2023-03-29T10:37:50.198Z,62.31
2023-03-29T10:41:50.235Z,57.52
2023-03-29T10:45:50.178Z,51.65
2023-03-29T10:49:51.011Z,50.70
2023-03-29T10:53:50.100Z,49.60
2023-03-29T10:57:50.029Z,34.05
2023-03-29T11:01:50.113Z,25.00
2023-03-29T11:05:49.971Z,49.93
2023-03-29T11:09:49.985Z,26.07
2023-03-29T11:13:49.863Z,25.00
2023-03-29T11:17:49.921Z,35.98
2023-03-29T11:21:49.918Z,0.00
2023-03-29T11:25:50.061Z,0.00
2023-03-29T11:29:50.146Z,0.00
2023-03-29T11:33:50.259Z,0.00
2023-03-29T11:37:50.406Z,0.00
2023-03-29T11:41:50.470Z,26.84
2023-03-29T11:45:50.553Z,40.02
2023-03-29T11:49:50.679Z,38.78
2023-03-29T11:53:50.850Z,63.47
2023-03-29T11:57:51.047Z,94.80
2023-03-29T12:01:52.356Z,227.65
2023-03-29T12:05:51.325Z,286.32
2023-03-29T12:09:51.835Z,274.09
2023-03-29T12:13:51.674Z,248.42
2023-03-29T12:17:51.797Z,250.00
2023-03-29T12:21:51.922Z,249.17
2023-03-29T12:25:52.049Z,247.63
2023-03-29T12:29:52.015Z,237.61
2023-03-29T12:33:52.116Z,238.62
2023-03-29T12:37:52.157Z,241.92
2023-03-29T12:41:52.062Z,246.23
2023-03-29T12:45:52.042Z,246.30
2023-03-29T12:49:51.959Z,241.67
2023-03-29T12:53:51.977Z,237.57
2023-03-29T12:57:51.913Z,233.46
2023-03-29T13:01:51.959Z,240.33
2023-03-29T13:05:52.019Z,238.30
2023-03-29T13:09:51.912Z,242.17
2023-03-29T13:13:51.735Z,239.45
2023-03-29T13:17:51.741Z,244.90
2023-03-29T13:21:51.696Z,242.25
2023-03-29T13:25:51.603Z,238.56
2023-03-29T13:29:51.612Z,239.30
2023-03-29T13:33:51.631Z,243.18
2023-03-29T13:37:51.941Z,249.56
2023-03-29T13:41:52.015Z,248.36
2023-03-29T13:45:51.987Z,248.87
2023-03-29T13:49:51.940Z,241.82
2023-03-29T13:53:51.941Z,232.47
2023-03-29T13:57:51.904Z,227.27
2023-03-29T14:01:51.844Z,222.04
2023-03-29T14:05:51.817Z,223.37
2023-03-29T14:09:51.746Z,219.23
2023-03-29T14:13:51.701Z,216.18
2023-03-29T14:17:51.687Z,218.73
2023-03-29T14:21:51.663Z,217.19
2023-03-29T14:25:51.658Z,215.90
2023-03-29T14:29:51.582Z,230.99
2023-03-29T14:33:51.594Z,236.27
2023-03-29T14:37:51.672Z,250.00
2023-03-29T14:41:51.795Z,249.61
2023-03-29T14:51:51.833Z,25.00
2023-03-29T14:52:52.415Z,25.00
2023-03-29T14:53:51.828Z,25.00
2023-03-29T14:54:51.826Z,25.00
2023-03-29T14:55:51.856Z,25.00
2023-03-29T14:56:51.805Z,25.00
2023-03-29T14:57:51.799Z,25.00
2023-03-29T14:58:51.812Z,24.24
2023-03-29T14:59:51.803Z,25.00
2023-03-29T15:00:51.788Z,25.00
2023-03-29T15:01:51.855Z,26.64
2023-03-29T15:02:51.828Z,25.00
2023-03-29T15:03:52.975Z,25.27
2023-03-29T15:04:51.749Z,27.95
2023-03-29T15:05:51.762Z,27.26
2023-03-29T15:06:51.763Z,25.73
2023-03-29T15:07:51.724Z,26.56
2023-03-29T15:09:51.848Z,27.69
2023-03-29T15:10:51.899Z,22.74
2023-03-29T15:11:51.964Z,15.82
2023-03-29T15:12:52.029Z,13.95
2023-03-29T15:13:52.079Z,16.07
2023-03-29T15:14:52.089Z,27.40
2023-03-29T15:15:52.210Z,28.92
2023-03-29T15:16:52.238Z,25.00
2023-03-29T15:17:52.791Z,25.33
2023-03-29T15:18:52.321Z,34.94
2023-03-29T15:19:52.358Z,25.00
2023-03-29T15:20:52.447Z,32.43
2023-03-29T15:21:52.487Z,27.82
2023-03-29T15:22:52.550Z,27.25
2023-03-29T15:23:52.659Z,28.62
2023-03-29T15:24:52.675Z,25.36
2023-03-29T15:25:52.741Z,31.17
2023-03-29T15:26:52.809Z,26.05
2023-03-29T15:27:52.888Z,26.88
2023-03-29T15:28:52.909Z,25.00
2023-03-29T15:29:52.986Z,26.86
2023-03-29T15:31:04.588Z,27.82
2023-03-29T15:31:54.095Z,27.88
2023-03-29T15:32:53.108Z,27.33
2023-03-29T15:33:53.073Z,27.84
2023-03-29T15:34:53.054Z,29.45
2023-03-29T15:35:53.058Z,36.82
2023-03-29T15:36:53.027Z,41.10
2023-03-29T15:37:52.977Z,40.09
2023-03-29T15:38:52.966Z,41.81
2023-03-29T15:39:53.016Z,45.93
2023-03-29T15:40:53.042Z,60.37
2023-03-29T15:41:53.053Z,59.14
2023-03-29T15:42:53.094Z,65.74
2023-03-29T15:43:53.114Z,68.95
2023-03-29T15:44:53.143Z,64.39
2023-03-29T15:45:53.171Z,55.31
2023-03-29T15:46:53.282Z,60.19
2023-03-29T15:47:53.226Z,57.75
2023-03-29T15:48:53.255Z,61.50
2023-03-29T15:49:53.282Z,68.25
2023-03-29T15:50:53.331Z,66.97
2023-03-29T15:51:53.314Z,68.09
2023-03-29T15:52:54.813Z,63.66
2023-03-29T15:53:53.309Z,63.92
2023-03-29T15:54:53.313Z,64.20
2023-03-29T15:55:53.327Z,65.43
2023-03-29T15:56:53.484Z,68.54
2023-03-29T15:57:53.435Z,74.49
2023-03-29T15:58:53.287Z,73.01
2023-03-29T15:59:53.314Z,71.08
2023-03-29T16:00:53.327Z,68.53
2023-03-29T16:01:53.293Z,74.55
2023-03-29T16:02:53.287Z,72.40
2023-03-29T16:03:53.277Z,72.22
2023-03-29T16:04:53.242Z,79.97
2023-03-29T16:05:53.224Z,73.89
2023-03-29T16:06:53.265Z,75.85
2023-03-29T16:07:53.212Z,87.03
2023-03-29T16:08:54.944Z,85.62
2023-03-29T16:09:53.220Z,80.38
2023-03-29T16:10:53.235Z,83.28
2023-03-29T16:11:53.188Z,80.10
2023-03-29T16:12:53.229Z,83.71
2023-03-29T16:13:53.261Z,81.20
2023-03-29T16:14:53.196Z,80.64
2023-03-29T16:15:53.161Z,82.99
2023-03-29T16:16:53.318Z,81.03
2023-03-29T16:17:53.157Z,82.29
2023-03-29T16:18:53.190Z,84.17
2023-03-29T16:19:53.137Z,84.49
2023-03-29T16:20:53.142Z,82.87
2023-03-29T16:21:53.165Z,84.18
2023-03-29T16:22:53.294Z,86.38
2023-03-29T16:23:53.108Z,87.27
2023-03-29T16:24:53.124Z,82.15
2023-03-29T16:25:53.111Z,88.12
2023-03-29T16:26:55.327Z,91.68
2023-03-29T16:27:53.086Z,91.91
2023-03-29T16:28:53.097Z,91.86
2023-03-29T16:29:53.097Z,93.17
2023-03-29T16:30:53.064Z,94.78
2023-03-29T16:31:53.352Z,89.31
2023-03-29T16:32:53.175Z,95.89
2023-03-29T16:33:53.026Z,95.98
2023-03-29T16:34:53.052Z,92.40
2023-03-29T16:35:53.177Z,93.47
2023-03-29T16:36:53.150Z,96.34
2023-03-29T16:37:53.036Z,91.94
2023-03-29T16:38:52.998Z,96.01
2023-03-29T16:39:53.009Z,94.41
2023-03-29T16:40:53.011Z,93.49
2023-03-29T16:41:53.019Z,94.74
2023-03-29T16:42:52.984Z,96.19
2023-03-29T16:43:52.994Z,98.19
2023-03-29T16:44:52.994Z,100.52
2023-03-29T16:45:53.034Z,99.46
2023-03-29T16:46:52.954Z,102.09
2023-03-29T16:47:52.962Z,104.48
2023-03-29T16:48:52.928Z,109.19
2023-03-29T16:49:52.941Z,112.45
2023-03-29T16:50:52.956Z,107.66
2023-03-29T16:51:52.912Z,109.42
2023-03-29T16:52:52.923Z,110.88
2023-03-29T16:53:52.896Z,113.98
2023-03-29T16:54:52.905Z,110.55
2023-03-29T16:55:52.918Z,111.79
2023-03-29T16:56:52.903Z,115.55
2023-03-29T16:57:52.858Z,113.72
2023-03-29T16:58:52.861Z,113.92
2023-03-29T16:59:52.863Z,108.03
2023-03-29T17:00:52.840Z,113.18
2023-03-29T17:01:52.905Z,112.47
2023-03-29T17:02:52.930Z,112.96
2023-03-29T17:03:52.868Z,113.53
2023-03-29T17:04:52.955Z,116.01
2023-03-29T17:05:52.820Z,112.32
2023-03-29T17:06:52.808Z,112.87
2023-03-29T17:07:52.850Z,113.42
2023-03-29T17:08:52.780Z,114.08
2023-03-29T17:09:52.798Z,115.45
2023-03-29T17:10:52.771Z,116.93
2023-03-29T17:11:52.841Z,116.88
2023-03-29T17:12:52.786Z,116.13
2023-03-29T17:13:52.754Z,122.45
2023-03-29T17:14:52.733Z,117.34
2023-03-29T17:15:52.929Z,115.14
2023-03-29T17:16:52.752Z,116.90
2023-03-29T17:17:52.831Z,120.32
2023-03-29T17:18:52.739Z,120.09
2023-03-29T17:19:52.759Z,125.82
2023-03-29T17:20:52.722Z,123.20
2023-03-29T17:21:52.709Z,123.70
2023-03-29T17:22:52.793Z,121.71
2023-03-29T17:23:52.792Z,126.35
2023-03-29T17:24:52.830Z,128.39
2023-03-29T17:25:52.881Z,122.39
2023-03-29T17:26:52.901Z,123.72
2023-03-29T17:27:52.988Z,124.36
2023-03-29T17:28:53.044Z,125.29
2023-03-29T17:29:53.103Z,123.53
2023-03-29T17:30:53.172Z,123.24
2023-03-29T17:31:53.157Z,123.13
2023-03-29T17:32:53.260Z,125.60
2023-03-29T17:33:53.268Z,125.69
2023-03-29T17:34:53.315Z,126.64
2023-03-29T17:35:53.442Z,126.51
2023-03-29T17:36:53.439Z,127.53
2023-03-29T17:37:53.467Z,127.00
2023-03-29T17:38:53.505Z,125.97
2023-03-29T17:39:53.567Z,126.61
2023-03-29T17:40:53.589Z,127.17
2023-03-29T17:41:53.686Z,128.30
2023-03-29T17:42:53.698Z,129.59
2023-03-29T17:43:53.795Z,130.59
2023-03-29T17:44:53.819Z,130.07
2023-03-29T17:45:53.834Z,127.80
2023-03-29T17:46:53.992Z,126.66
2023-03-29T17:47:54.032Z,125.37
2023-03-29T17:48:53.981Z,128.95
2023-03-29T17:49:54.063Z,134.18
2023-03-29T17:50:54.094Z,139.15
2023-03-29T17:51:54.197Z,138.37
2023-03-29T17:52:54.227Z,142.00
2023-03-29T17:53:54.294Z,139.99
2023-03-29T17:54:54.308Z,138.55
2023-03-29T17:55:54.380Z,138.73
2023-03-29T17:56:54.466Z,140.67
2023-03-29T17:57:54.459Z,138.01
2023-03-29T17:58:54.541Z,139.60
2023-03-29T17:59:54.616Z,134.79
2023-03-29T18:00:54.664Z,137.39
2023-03-29T18:01:54.743Z,134.78
2023-03-29T18:02:55.103Z,134.30
2023-03-29T18:03:54.847Z,132.27
2023-03-29T18:04:54.854Z,131.48
2023-03-29T18:05:54.897Z,129.13
2023-03-29T18:06:54.967Z,130.74
2023-03-29T18:07:55.000Z,134.46
2023-03-29T18:08:55.086Z,130.04
2023-03-29T18:09:55.121Z,132.17
2023-03-29T18:10:55.200Z,134.18
2023-03-29T18:11:55.247Z,133.36
2023-03-29T18:12:55.278Z,131.27
2023-03-29T18:13:55.361Z,132.55
2023-03-29T18:14:55.433Z,132.52
2023-03-29T18:15:55.479Z,133.52
2023-03-29T18:16:55.623Z,132.79
2023-03-29T18:17:55.625Z,130.13
2023-03-29T18:18:55.653Z,132.93
2023-03-29T18:19:55.714Z,131.06
2023-03-29T18:20:55.737Z,129.90
2023-03-29T18:21:55.820Z,131.46
2023-03-29T18:22:55.869Z,132.42
2023-03-29T18:23:57.042Z,132.08
2023-03-29T18:24:55.988Z,130.90
2023-03-29T18:25:56.020Z,130.81
2023-03-29T18:26:56.146Z,128.92
2023-03-29T18:27:56.177Z,128.06
2023-03-29T18:28:56.204Z,130.59
2023-03-29T18:29:56.281Z,128.84
2023-03-29T18:30:56.355Z,128.32
2023-03-29T18:31:56.501Z,129.23
2023-03-29T18:32:56.552Z,128.02
2023-03-29T18:33:56.551Z,132.77
2023-03-29T18:34:56.606Z,126.84
2023-03-29T18:35:56.742Z,127.24
2023-03-29T18:36:56.702Z,126.05
2023-03-29T18:37:56.746Z,127.30
2023-03-29T18:38:56.819Z,128.50
2023-03-29T18:39:56.928Z,123.75
2023-03-29T18:40:56.934Z,125.75
2023-03-29T18:41:56.980Z,132.17
2023-03-29T18:42:57.060Z,129.98
2023-03-29T18:43:57.164Z,128.96
2023-03-29T18:44:57.201Z,125.66
2023-03-29T18:45:57.286Z,130.56
2023-03-29T18:46:57.304Z,127.53
2023-03-29T18:47:57.393Z,129.10
2023-03-29T18:48:57.425Z,130.25
2023-03-29T18:49:57.488Z,130.93
2023-03-29T18:50:57.543Z,128.01
2023-03-29T18:51:57.705Z,126.63
2023-03-29T18:52:57.636Z,128.57
2023-03-29T18:53:57.688Z,129.46
2023-03-29T18:54:57.759Z,132.68
2023-03-29T18:55:57.804Z,134.35
2023-03-29T18:56:59.255Z,137.37
2023-03-29T18:57:57.916Z,136.66
2023-03-29T18:58:57.982Z,138.06
2023-03-29T18:59:58.000Z,139.51
2023-03-29T19:00:58.088Z,139.70
2023-03-29T19:01:58.143Z,137.05
2023-03-29T19:02:58.291Z,138.02
2023-03-29T19:03:58.262Z,139.50
2023-03-29T19:04:58.339Z,137.64
2023-03-29T19:05:58.393Z,140.30
2023-03-29T19:06:58.447Z,140.47
2023-03-29T19:07:58.496Z,134.53
2023-03-29T19:08:58.576Z,135.82
2023-03-29T19:09:58.618Z,133.97
2023-03-29T19:10:58.673Z,136.30
2023-03-29T19:11:58.727Z,135.06
2023-03-29T19:12:58.776Z,131.23
2023-03-29T19:13:58.811Z,132.96
2023-03-29T19:14:58.904Z,133.69
2023-03-29T19:15:59.030Z,132.88
2023-03-29T19:16:58.997Z,129.91
2023-03-29T19:17:59.112Z,133.15
2023-03-29T19:18:59.047Z,127.37
2023-03-29T19:19:59.098Z,130.26
2023-03-29T19:20:59.179Z,131.77
2023-03-29T19:22:00.540Z,129.01
2023-03-29T19:22:59.274Z,124.16
2023-03-29T19:23:59.324Z,128.01
2023-03-29T19:24:59.337Z,125.87
2023-03-29T19:25:59.369Z,129.14
2023-03-29T19:26:59.375Z,126.24
2023-03-29T19:27:59.413Z,127.24
2023-03-29T19:28:59.426Z,124.41
2023-03-29T19:29:59.393Z,124.51
2023-03-29T19:30:59.554Z,125.79
2023-03-29T19:31:59.434Z,119.67
2023-03-29T19:32:59.503Z,120.29
2023-03-29T19:33:59.504Z,124.20
2023-03-29T19:34:59.509Z,122.02
2023-03-29T19:35:59.572Z,120.28
2023-03-29T19:36:59.513Z,120.98
2023-03-29T19:37:59.519Z,119.07
2023-03-29T19:38:59.553Z,123.29
2023-03-29T19:39:59.571Z,120.59
2023-03-29T19:40:59.654Z,121.62
2023-03-29T19:41:59.639Z,117.66
2023-03-29T19:42:59.651Z,121.31
2023-03-29T19:43:59.667Z,120.72
2023-03-29T19:44:59.692Z,117.28
2023-03-29T19:45:59.730Z,119.21
2023-03-29T19:46:59.876Z,119.09
2023-03-29T19:48:02.548Z,117.83
2023-03-29T19:48:59.809Z,119.19
2023-03-29T19:49:59.758Z,117.56
2023-03-29T19:50:59.770Z,117.64
2023-03-29T19:51:59.769Z,116.72
2023-03-29T19:52:59.744Z,113.53
2023-03-29T19:53:59.725Z,117.62
2023-03-29T19:54:59.732Z,112.06
2023-03-29T19:55:59.743Z,117.08
2023-03-29T19:56:59.802Z,113.97
2023-03-29T19:57:59.711Z,113.07
2023-03-29T19:58:59.718Z,115.99
2023-03-29T19:59:59.727Z,111.18
2023-03-29T20:00:59.708Z,116.34
2023-03-29T20:01:59.733Z,111.18
2023-03-29T20:02:59.702Z,111.89
2023-03-29T20:03:59.840Z,111.87
2023-03-29T20:04:59.657Z,110.71
2023-03-29T20:05:59.693Z,112.55
2023-03-29T20:06:59.634Z,109.68
2023-03-29T20:07:59.643Z,113.34
2023-03-29T20:08:59.676Z,114.19
2023-03-29T20:09:59.620Z,111.11
2023-03-29T20:10:59.654Z,111.28
2023-03-29T20:11:59.635Z,110.41
2023-03-29T20:12:59.644Z,111.13
2023-03-29T20:13:59.586Z,111.06
2023-03-29T20:14:59.612Z,110.85
2023-03-29T20:15:59.645Z,111.36
2023-03-29T20:16:59.637Z,112.31
2023-03-29T20:17:59.958Z,111.33
2023-03-29T20:18:59.578Z,111.09
2023-03-29T20:19:59.556Z,110.65
2023-03-29T20:20:59.558Z,107.99
2023-03-29T20:21:59.543Z,107.06
2023-03-29T20:23:00.636Z,107.70
2023-03-29T20:23:59.549Z,107.94
2023-03-29T20:24:59.557Z,108.08
2023-03-29T20:25:59.526Z,109.34
2023-03-29T20:26:59.516Z,108.74
2023-03-29T20:27:59.572Z,108.41
2023-03-29T20:28:59.508Z,108.91
2023-03-29T20:29:59.537Z,109.98
2023-03-29T20:30:59.493Z,109.75
2023-03-29T20:31:59.582Z,108.02
2023-03-29T20:32:59.563Z,109.17
2023-03-29T20:33:59.488Z,106.09
2023-03-29T20:34:59.496Z,108.65
2023-03-29T20:35:59.552Z,108.38
2023-03-29T20:36:59.498Z,107.41
2023-03-29T20:37:59.471Z,108.20
2023-03-29T20:38:59.444Z,107.75
2023-03-29T20:39:59.461Z,106.53
2023-03-29T20:40:59.420Z,107.76
2023-03-29T20:41:59.440Z,107.90
2023-03-29T20:42:59.429Z,107.80
2023-03-29T20:43:59.412Z,105.22
2023-03-29T20:44:59.405Z,104.61
2023-03-29T20:45:59.702Z,102.57
2023-03-29T20:46:59.397Z,107.24
2023-03-29T20:47:59.385Z,104.95
2023-03-29T20:48:59.369Z,105.84
2023-03-29T20:49:59.347Z,105.54
2023-03-29T20:50:59.392Z,106.42
2023-03-29T20:51:59.381Z,105.26
2023-03-29T20:52:59.339Z,105.42
2023-03-29T20:53:59.340Z,105.65
2023-03-29T20:54:59.331Z,105.61
2023-03-29T20:55:59.330Z,105.05
2023-03-29T20:56:59.377Z,103.39
2023-03-29T20:57:59.311Z,105.14
2023-03-29T20:58:59.298Z,103.05
2023-03-29T20:59:59.314Z,104.65
2023-03-29T21:00:59.299Z,103.45
2023-03-29T21:01:59.288Z,102.98
2023-03-29T21:02:59.381Z,100.95
2023-03-29T21:03:59.295Z,104.82
2023-03-29T21:04:59.245Z,104.05
2023-03-29T21:05:59.259Z,102.94
2023-03-29T21:07:00.414Z,104.28
2023-03-29T21:07:59.236Z,104.50
2023-03-29T21:08:59.281Z,104.67
2023-03-29T21:09:59.253Z,104.80
2023-03-29T21:10:59.215Z,104.52
2023-03-29T21:11:59.228Z,104.12
2023-03-29T21:12:59.236Z,104.25
2023-03-29T21:13:59.218Z,104.77
2023-03-29T21:14:59.206Z,104.35
2023-03-29T21:15:59.208Z,104.38
2023-03-29T21:16:59.202Z,101.11
2023-03-29T21:17:59.223Z,105.22
2023-03-29T21:18:59.173Z,101.95
2023-03-29T21:19:59.161Z,104.24
2023-03-29T21:20:59.202Z,102.82
2023-03-29T21:21:59.146Z,101.33
2023-03-29T21:22:59.126Z,104.07
2023-03-29T21:23:59.161Z,100.77
2023-03-29T21:24:59.148Z,101.96
2023-03-29T21:25:59.118Z,101.27
2023-03-29T21:26:59.123Z,100.70
2023-03-29T21:27:59.130Z,102.58
2023-03-29T21:28:59.103Z,100.39
2023-03-29T21:29:59.081Z,102.12
2023-03-29T21:30:59.104Z,101.62
2023-03-29T21:31:59.108Z,100.08
2023-03-29T21:32:59.105Z,101.66
2023-03-29T21:33:59.072Z,101.42
2023-03-29T21:34:59.074Z,98.70
2023-03-29T21:35:59.103Z,102.03
2023-03-29T21:36:59.024Z,98.71
2023-03-29T21:37:59.021Z,100.82
2023-03-29T21:38:59.067Z,101.47
2023-03-29T21:39:59.079Z,99.40
2023-03-29T21:40:59.017Z,100.45
2023-03-29T21:41:59.017Z,100.72
2023-03-29T21:42:59.037Z,101.19
2023-03-29T21:43:58.962Z,101.34
2023-03-29T21:44:59.002Z,99.63
2023-03-29T21:45:59.008Z,102.98
2023-03-29T21:46:59.018Z,101.39
2023-03-29T21:47:59.001Z,100.49
2023-03-29T21:48:58.979Z,100.63
2023-03-29T21:49:58.978Z,99.19
2023-03-29T21:50:58.937Z,100.31
2023-03-29T21:51:58.955Z,97.24
2023-03-29T21:52:58.950Z,99.77
2023-03-29T21:53:58.935Z,99.26
2023-03-29T21:54:58.939Z,99.31
2023-03-29T21:55:58.912Z,99.15
2023-03-29T21:56:58.899Z,100.01
2023-03-29T21:57:58.912Z,99.44
2023-03-29T21:58:58.891Z,98.61
2023-03-29T21:59:58.867Z,99.39
2023-03-29T22:00:58.962Z,98.49
2023-03-29T22:01:58.939Z,99.73
2023-03-29T22:02:58.889Z,98.80
2023-03-29T22:03:58.874Z,98.20
2023-03-29T22:04:58.849Z,99.15
2023-03-29T22:05:58.812Z,98.76
2023-03-29T22:06:58.847Z,98.82
2023-03-29T22:07:58.881Z,98.17
2023-03-29T22:08:58.857Z,98.61
2023-03-29T22:09:58.850Z,98.18
2023-03-29T22:10:58.833Z,97.71
2023-03-29T22:11:58.778Z,98.43
2023-03-29T22:12:58.810Z,99.50
2023-03-29T22:13:58.762Z,97.38
2023-03-29T22:14:58.772Z,96.77
2023-03-29T22:15:58.929Z,98.79
2023-03-29T22:16:58.797Z,99.82
2023-03-29T22:17:59.909Z,98.22
2023-03-29T22:18:58.789Z,98.42
2023-03-29T22:19:58.749Z,98.65
2023-03-29T22:20:58.727Z,99.12
2023-03-29T22:21:58.746Z,97.96
2023-03-29T22:22:58.703Z,98.91
2023-03-29T22:23:58.705Z,97.14
2023-03-29T22:24:58.779Z,95.26
2023-03-29T22:25:58.683Z,98.61
2023-03-29T22:26:58.725Z,98.81
2023-03-29T22:27:58.687Z,99.14
2023-03-29T22:28:58.675Z,98.57
2023-03-29T22:29:58.717Z,97.81
2023-03-29T22:30:58.643Z,97.87
2023-03-29T22:31:58.684Z,97.06
2023-03-29T22:32:58.698Z,97.39
2023-03-29T22:33:58.828Z,93.97
2023-03-29T22:34:58.602Z,97.45
2023-03-29T22:35:58.744Z,97.00
2023-03-29T22:36:58.641Z,96.34
2023-03-29T22:37:58.590Z,96.69
2023-03-29T22:38:58.597Z,96.10
2023-03-29T22:39:58.581Z,96.21
2023-03-29T22:40:58.615Z,97.13
2023-03-29T22:41:58.600Z,97.76
2023-03-29T22:42:58.551Z,96.29
2023-03-29T22:43:58.541Z,96.55
2023-03-29T22:44:58.587Z,96.88
2023-03-29T22:45:58.610Z,98.01
2023-03-29T22:46:58.552Z,96.23
2023-03-29T22:47:58.575Z,96.71
2023-03-29T22:48:58.565Z,95.51
2023-03-29T22:49:58.520Z,95.98
2023-03-29T22:50:58.539Z,96.87
2023-03-29T22:51:58.549Z,98.03
2023-03-29T22:52:58.564Z,97.40
2023-03-29T22:53:58.641Z,94.59
2023-03-29T22:54:58.601Z,96.82
2023-03-29T22:55:58.658Z,95.29
2023-03-29T22:56:58.694Z,95.34
2023-03-29T22:57:58.695Z,95.57
2023-03-29T22:58:58.736Z,96.86
2023-03-29T22:59:58.730Z,97.00
2023-03-29T23:00:58.791Z,95.78
2023-03-29T23:01:58.818Z,95.24
2023-03-29T23:02:58.808Z,96.68
2023-03-29T23:03:58.794Z,94.96
2023-03-29T23:04:58.827Z,95.39
2023-03-29T23:05:58.837Z,95.37
2023-03-29T23:06:58.842Z,96.67
2023-03-29T23:07:58.818Z,96.72
2023-03-29T23:08:58.919Z,96.02
2023-03-29T23:09:58.910Z,94.04
2023-03-29T23:10:58.928Z,93.69
2023-03-29T23:11:58.975Z,95.13
2023-03-29T23:12:58.936Z,94.15
2023-03-29T23:13:58.984Z,93.50
2023-03-29T23:14:59.001Z,95.14
2023-03-29T23:15:59.270Z,95.75
2023-03-29T23:16:59.001Z,93.52
2023-03-29T23:17:59.059Z,94.10
2023-03-29T23:18:59.072Z,94.77
2023-03-29T23:19:59.049Z,95.61
2023-03-29T23:20:59.113Z,95.01
2023-03-29T23:21:59.142Z,94.95
2023-03-29T23:22:59.162Z,95.49
2023-03-29T23:23:59.152Z,95.25
2023-03-29T23:24:59.167Z,94.06
2023-03-29T23:25:59.225Z,95.61
2023-03-29T23:26:59.174Z,93.85
2023-03-29T23:27:59.235Z,94.20
2023-03-29T23:28:59.223Z,95.78
2023-03-29T23:29:59.240Z,94.74
2023-03-29T23:30:59.327Z,94.29
2023-03-29T23:31:59.269Z,95.25
2023-03-29T23:32:59.326Z,95.71
2023-03-29T23:33:59.322Z,94.35
2023-03-29T23:34:59.353Z,94.53
2023-03-29T23:35:59.416Z,93.37
2023-03-29T23:36:59.406Z,93.52
2023-03-29T23:37:59.461Z,93.96
2023-03-29T23:38:59.476Z,93.51
2023-03-29T23:39:59.495Z,92.91
2023-03-29T23:40:59.533Z,93.26
2023-03-29T23:41:59.537Z,92.24
2023-03-29T23:42:59.750Z,92.76
2023-03-29T23:43:59.551Z,92.67
2023-03-29T23:44:59.566Z,92.95
2023-03-29T23:45:59.621Z,93.06
2023-03-29T23:46:59.698Z,92.90
2023-03-29T23:47:59.678Z,93.02
2023-03-29T23:48:59.746Z,94.01
2023-03-29T23:49:59.740Z,92.33
2023-03-29T23:50:59.764Z,92.24